Time;durP1;ratioP1;P1;durP2;ratioP2;P2;SDS_P1;SDS_P2;PMS_P1;PMS_P2;Temp;Humidity;BMP_temperature;BMP_pressure;BME280_temperature;BME280_humidity;BME280_pressure;Samples;Min_cycle;Max_cycle;Signal;HPM_P1;HPM_P2
2023/06/22 00:02:25;;;;;;;9.23;8.27;;;20.40;97.90;;;20.76;64.67;95391.38;4986067;28;20463;-55
2023/06/22 00:04:52;;;;;;;14.03;9.20;;;20.40;98.20;;;20.73;64.86;95385.59;4987892;28;20482;-54
2023/06/22 00:07:19;;;;;;;11.20;8.30;;;20.30;98.40;;;20.69;64.52;95385.13;4987425;28;20893;-55
2023/06/22 00:09:47;;;;;;;11.03;9.17;;;20.30;98.30;;;20.64;64.83;95379.50;4990332;28;20854;-54
2023/06/22 00:12:14;;;;;;;9.33;8.43;;;20.20;98.50;;;20.61;64.42;95377.22;4987898;28;20522;-58
2023/06/22 00:14:42;;;;;;;11.77;9.50;;;20.20;98.60;;;20.59;65.13;95377.41;4981206;28;21100;-54
2023/06/22 00:17:10;;;;;;;14.73;9.27;;;20.10;98.80;;;20.58;65.06;95377.59;4988004;28;20950;-53
2023/06/22 00:19:40;;;;;;;21.27;8.47;;;20.10;99.20;;;20.59;65.57;95363.22;4987355;28;20466;-59
2023/06/22 00:22:07;;;;;;;22.60;8.80;;;20.10;99.30;;;20.59;65.25;95363.22;4986152;28;20987;-60
2023/06/22 00:24:35;;;;;;;9.00;8.17;;;20.20;99.30;;;20.56;65.30;95363.59;4987709;28;21268;-59
2023/06/22 00:27:02;;;;;;;10.33;8.97;;;20.10;99.10;;;20.50;65.05;95356.34;4987879;28;20598;-54
2023/06/22 00:29:29;;;;;;;15.93;9.00;;;20.10;99.10;;;20.46;65.01;95357.72;4987682;28;20478;-59
2023/06/22 00:31:58;;;;;;;10.10;9.10;;;20.00;99.10;;;20.40;65.84;95352.13;4987555;28;20502;-54
2023/06/22 00:34:25;;;;;;;13.47;8.80;;;20.00;99.60;;;20.40;65.38;95364.63;4988070;28;20474;-56
2023/06/22 00:36:52;;;;;;;11.40;9.10;;;20.00;99.30;;;20.38;65.32;95366.69;4987610;28;20879;-54
2023/06/22 00:39:19;;;;;;;11.80;9.30;;;20.00;99.30;;;20.37;65.62;95365.88;4987812;28;20548;-59
2023/06/22 00:41:47;;;;;;;12.83;9.10;;;19.90;99.60;;;20.38;66.04;95361.34;4988256;28;20451;-56
2023/06/22 00:44:14;;;;;;;10.87;9.77;;;19.90;99.90;;;20.38;65.74;95358.66;4988595;28;20983;-59
2023/06/22 00:46:41;;;;;;;12.57;9.67;;;19.90;99.90;;;20.38;65.70;95351.47;4983908;28;20451;-59
2023/06/22 00:49:10;;;;;;;10.07;9.07;;;19.90;99.90;;;20.39;65.80;95357.66;4986903;28;20478;-56
2023/06/22 00:51:38;;;;;;;19.87;9.43;;;19.90;99.90;;;20.39;66.02;95360.34;4987346;28;20486;-59
2023/06/22 00:54:06;;;;;;;11.07;9.50;;;19.90;99.90;;;20.38;65.28;95356.81;4987352;28;21048;-60
2023/06/22 00:56:33;;;;;;;10.53;8.40;;;19.90;99.90;;;20.38;66.06;95356.00;4987752;28;20817;-56
2023/06/22 00:59:03;;;;;;;9.00;8.20;;;19.90;99.90;;;20.37;66.07;95359.66;4987658;28;20450;-55
2023/06/22 01:01:30;;;;;;;15.37;9.53;;;19.90;99.90;;;20.36;66.08;95374.06;4986553;28;20438;-54
2023/06/22 01:03:58;;;;;;;11.23;10.07;;;19.90;99.90;;;20.38;66.67;95380.03;4987320;28;20455;-55
2023/06/22 01:06:41;;;;;;;10.00;9.00;;;19.90;99.90;;;20.36;66.50;95374.88;4987590;28;20459;-55
2023/06/22 01:09:15;;;;;;;14.03;9.50;;;19.90;99.90;;;20.36;66.06;95369.53;4985178;28;20490;-65
2023/06/22 01:11:45;;;;;;;11.40;10.20;;;19.90;99.90;;;20.33;66.44;95364.56;4986268;28;20598;-53
2023/06/22 01:14:16;;;;;;;19.70;11.00;;;19.90;99.90;;;20.32;66.73;95370.94;4986002;28;20635;-59
2023/06/22 01:16:45;;;;;;;10.20;9.20;;;19.90;99.90;;;20.31;67.04;95366.63;4985442;28;20864;-59
2023/06/22 01:19:28;;;;;;;13.13;9.00;;;19.90;99.90;;;20.31;67.24;95373.78;4983287;28;20478;-53
2023/06/22 01:21:57;;;;;;;14.70;10.10;;;19.80;99.90;;;20.31;67.26;95366.63;4984656;28;20529;-59
2023/06/22 01:24:26;;;;;;;12.67;11.27;;;19.90;99.90;;;20.30;66.75;95367.63;4986691;28;20475;-59
2023/06/22 01:27:01;;;;;;;11.70;9.70;;;19.90;99.90;;;20.29;67.03;95376.66;4985966;28;20471;-54
2023/06/22 01:29:30;;;;;;;15.40;9.77;;;19.80;99.90;;;20.29;67.08;95384.66;4983275;28;21236;-54
2023/06/22 01:31:57;;;;;;;27.87;10.60;;;19.80;99.90;;;20.29;67.22;95394.53;4985603;28;20502;-59
2023/06/22 01:34:25;;;;;;;13.03;9.23;;;19.80;99.90;;;20.27;67.57;95394.72;4986210;28;20474;-56
2023/06/22 01:36:52;;;;;;;11.10;9.90;;;19.80;99.90;;;20.26;67.38;95395.72;4985325;28;21057;-55
2023/06/22 01:39:19;;;;;;;13.90;11.03;;;19.80;99.90;;;20.24;67.52;95390.56;4984499;28;21026;-53
2023/06/22 01:41:46;;;;;;;13.13;10.20;;;19.80;99.90;;;20.22;67.69;95403.28;4985415;28;20466;-55
2023/06/22 01:44:14;;;;;;;15.90;11.67;;;19.80;99.90;;;20.21;67.67;95387.44;4984611;28;20482;-57
2023/06/22 01:46:42;;;;;;;14.23;10.43;;;19.80;99.90;;;20.17;67.27;95392.34;4985882;28;20463;-58
2023/06/22 01:49:10;;;;;;;13.20;9.00;;;19.80;99.90;;;20.13;67.70;95395.56;4985413;28;20506;-54
2023/06/22 01:51:37;;;;;;;16.70;9.90;;;19.70;99.90;;;20.08;67.67;95395.28;4985271;28;20466;-56
2023/06/22 01:54:06;;;;;;;12.57;9.93;;;19.60;99.90;;;20.07;67.84;95397.13;4986164;28;20512;-55
2023/06/22 01:56:33;;;;;;;15.27;9.93;;;19.70;99.90;;;20.08;68.03;95401.47;4985879;28;20454;-58
2023/06/22 01:59:05;;;;;;;15.10;10.40;;;19.70;99.90;;;20.11;67.83;95408.25;4985932;28;20447;-59
2023/06/22 02:01:36;;;;;;;16.63;9.93;;;19.70;99.90;;;20.13;67.64;95415.09;4984376;28;20458;-60
2023/06/22 02:04:07;;;;;;;14.30;9.20;;;19.60;99.90;;;20.14;67.72;95426.59;4984986;28;20486;-56
2023/06/22 02:06:37;;;;;;;13.90;9.87;;;19.70;99.90;;;20.14;67.71;95418.56;4983112;28;20450;-60
2023/06/22 02:09:08;;;;;;;13.43;9.80;;;19.70;99.90;;;20.14;67.55;95418.56;4986438;28;20474;-56
2023/06/22 02:11:36;;;;;;;11.13;9.47;;;19.70;99.90;;;20.13;67.58;95417.75;4982967;28;20451;-55
2023/06/22 02:14:03;;;;;;;17.33;10.27;;;19.70;99.90;;;20.09;67.81;95411.13;4985872;28;20496;-59
2023/06/22 02:16:32;;;;;;;9.83;8.87;;;19.70;99.90;;;20.10;67.39;95410.13;4986040;28;20972;-54
2023/06/22 02:19:02;;;;;;;14.20;10.00;;;19.70;99.90;;;20.09;67.84;95405.78;4985559;28;20447;-56
2023/06/22 02:21:31;;;;;;;22.33;10.00;;;19.60;99.90;;;20.09;67.52;95410.31;4985910;28;20449;-55
2023/06/22 02:23:59;;;;;;;14.30;10.20;;;19.70;99.90;;;20.06;67.25;95407.00;4986307;28;20541;-59
2023/06/22 02:26:26;;;;;;;17.33;9.67;;;19.60;99.90;;;20.06;67.22;95408.81;4982056;28;20924;-59
2023/06/22 02:28:53;;;;;;;17.10;8.97;;;19.60;99.90;;;20.05;67.36;95408.00;4985818;28;20451;-53
2023/06/22 02:31:21;;;;;;;9.80;8.43;;;19.60;99.90;;;20.05;67.23;95400.00;4984878;28;20518;-58
2023/06/22 02:33:48;;;;;;;13.30;8.70;;;19.60;99.90;;;20.02;67.19;95400.38;4985804;28;20881;-60
2023/06/22 02:36:16;;;;;;;13.43;9.60;;;19.60;99.90;;;19.98;67.06;95398.25;4989005;28;20462;-58
2023/06/22 02:38:47;;;;;;;12.53;8.83;;;19.50;99.90;;;19.95;66.87;95398.63;4988123;28;20462;-60
2023/06/22 02:41:17;;;;;;;9.53;8.40;;;19.50;99.90;;;19.90;66.93;95396.50;4987918;28;20446;-54
2023/06/22 02:43:46;;;;;;;13.30;8.80;;;19.50;99.90;;;19.87;67.07;95396.88;4988202;28;21020;-54
2023/06/22 02:46:13;;;;;;;12.20;9.13;;;19.40;99.90;;;19.82;66.67;95394.75;4988779;28;20541;-59
2023/06/22 02:48:41;;;;;;;11.90;9.30;;;19.40;99.90;;;19.79;67.28;95399.66;4987496;28;20872;-59
2023/06/22 02:51:08;;;;;;;10.07;9.03;;;19.40;99.90;;;19.75;67.10;95406.31;4988432;28;20462;-58
2023/06/22 02:53:35;;;;;;;13.10;8.63;;;19.40;99.90;;;19.70;67.17;95406.88;4988632;28;21044;-55
2023/06/22 02:56:05;;;;;;;10.13;8.83;;;19.30;99.90;;;19.66;66.99;95401.06;4989242;28;20475;-55
2023/06/22 02:58:38;;;;;;;9.40;8.50;;;19.30;99.90;;;19.63;67.66;95417.47;4988425;28;20561;-60
2023/06/22 03:01:05;;;;;;;13.50;9.87;;;19.20;99.90;;;19.58;67.45;95409.19;4988192;28;20485;-60
2023/06/22 03:03:33;;;;;;;9.30;8.30;;;19.20;99.90;;;19.53;67.96;95400.88;4987175;28;20450;-57
2023/06/22 03:06:01;;;;;;;9.60;8.63;;;19.10;99.90;;;19.51;67.72;95409.06;4990072;28;20564;-55
2023/06/22 03:08:29;;;;;;;17.90;9.67;;;19.10;99.90;;;19.50;67.81;95412.75;4989039;28;20548;-60
2023/06/22 03:10:56;;;;;;;9.57;8.60;;;19.10;99.90;;;19.51;67.81;95413.56;4988298;28;20514;-59
2023/06/22 03:13:25;;;;;;;11.00;8.00;;;19.10;99.90;;;19.55;68.18;95416.69;4988026;28;20496;-55
2023/06/22 03:15:52;;;;;;;14.30;8.40;;;19.10;99.90;;;19.56;67.94;95421.03;4985824;28;20474;-59
2023/06/22 03:18:22;;;;;;;9.20;8.30;;;19.10;99.90;;;19.59;68.12;95428.69;4986495;28;20466;-54
2023/06/22 03:20:49;;;;;;;11.93;8.30;;;19.20;99.90;;;19.60;68.11;95433.84;4989094;28;20946;-59
2023/06/22 03:23:16;;;;;;;9.13;8.23;;;19.20;99.90;;;19.64;67.67;95435.13;4986770;28;20529;-59
2023/06/22 03:25:44;;;;;;;14.80;9.30;;;19.20;99.90;;;19.68;67.83;95438.25;4986669;28;20474;-60
2023/06/22 03:28:11;;;;;;;15.37;10.50;;;19.20;99.90;;;19.69;67.75;95429.25;4988806;28;20494;-57
2023/06/22 03:30:40;;;;;;;12.90;9.30;;;19.20;99.90;;;19.69;67.50;95432.75;4988988;28;20505;-57
2023/06/22 03:33:07;;;;;;;12.83;10.47;;;19.30;99.90;;;19.68;67.45;95436.41;4988751;28;20501;-59
2023/06/22 03:35:34;;;;;;;11.17;9.30;;;19.30;99.90;;;19.72;67.64;95444.91;4985406;28;20474;-59
2023/06/22 03:38:02;;;;;;;10.33;9.33;;;19.30;99.90;;;19.73;67.72;95449.22;4988602;28;20458;-59
2023/06/22 03:40:29;;;;;;;10.37;9.40;;;19.30;99.90;;;19.76;67.32;95450.69;4988623;28;20965;-55
2023/06/22 03:42:56;;;;;;;12.70;7.73;;;19.30;99.90;;;19.76;67.31;95453.38;4985754;28;22615;-58
2023/06/22 03:45:24;;;;;;;11.80;9.93;;;19.30;99.90;;;19.75;67.42;95447.22;4985547;28;22325;-58
2023/06/22 03:47:53;;;;;;;13.13;8.60;;;19.40;99.90;;;19.77;67.41;95458.56;4987959;28;20458;-61
2023/06/22 03:50:21;;;;;;;10.60;7.90;;;19.30;99.90;;;19.78;67.91;95462.84;4987057;28;20486;-59
2023/06/22 03:52:48;;;;;;;10.23;9.23;;;19.30;99.90;;;19.83;67.30;95470.31;4987673;28;20573;-59
2023/06/22 03:55:15;;;;;;;11.33;9.20;;;19.40;99.90;;;19.88;67.73;95459.94;4987136;28;20489;-60
2023/06/22 03:57:42;;;;;;;9.17;8.17;;;19.40;99.90;;;19.92;67.21;95460.41;4988140;28;21393;-58
2023/06/22 04:00:11;;;;;;;15.73;8.20;;;19.50;99.90;;;19.93;67.25;95460.22;4984252;28;20494;-55
2023/06/22 04:02:39;;;;;;;9.57;8.50;;;19.50;99.90;;;19.93;67.13;95460.22;4986699;28;20463;-55
2023/06/22 04:05:09;;;;;;;12.83;9.23;;;19.50;99.90;;;19.91;66.87;95456.91;4985366;28;20553;-55
2023/06/22 04:07:37;;;;;;;10.23;9.07;;;19.50;99.90;;;19.92;66.99;95452.38;4985877;28;20483;-58
2023/06/22 04:10:05;;;;;;;12.03;10.60;;;19.50;99.90;;;19.93;66.80;95448.72;4987183;28;21019;-59
2023/06/22 04:12:32;;;;;;;11.47;9.87;;;19.50;99.90;;;19.93;66.95;95441.53;4987342;28;20813;-60
2023/06/22 04:15:00;;;;;;;11.03;9.80;;;19.50;99.90;;;19.93;66.71;95448.72;4985763;28;20493;-62
2023/06/22 04:17:27;;;;;;;14.90;10.87;;;19.50;99.90;;;19.90;66.66;95439.22;4986781;28;20471;-56
2023/06/22 04:19:54;;;;;;;11.17;9.60;;;19.50;99.90;;;19.88;66.76;95431.41;4987709;28;20548;-56
2023/06/22 04:22:23;;;;;;;17.00;10.23;;;19.50;99.90;;;19.88;66.81;95436.72;4986736;28;20462;-58
2023/06/22 04:24:52;;;;;;;15.60;9.93;;;19.50;99.90;;;19.90;67.14;95431.22;4985508;28;20525;-54
2023/06/22 04:27:23;;;;;;;17.77;10.47;;;19.50;99.90;;;19.94;66.86;95429.84;4986360;28;20966;-57
2023/06/22 04:29:51;;;;;;;16.23;9.80;;;19.50;99.90;;;19.98;66.92;95433.78;4987773;28;20582;-55
2023/06/22 04:32:18;;;;;;;11.40;10.17;;;19.60;99.90;;;20.05;67.26;95437.38;4986697;28;20528;-56
2023/06/22 04:34:45;;;;;;;13.77;10.80;;;19.60;99.90;;;20.11;66.83;95435.81;4987496;28;20498;-58
2023/06/22 04:37:15;;;;;;;21.53;10.63;;;19.60;99.90;;;20.19;66.69;95433.03;4987577;28;20461;-60
2023/06/22 04:39:43;;;;;;;16.53;10.90;;;19.70;99.90;;;20.27;66.34;95442.81;4987605;28;20852;-59
2023/06/22 04:42:11;;;;;;;18.47;11.77;;;19.80;99.90;;;20.34;66.48;95446.41;4987756;28;21013;-56
2023/06/22 04:44:39;;;;;;;27.80;11.63;;;19.90;99.90;;;20.41;nan;95441.94;4987939;28;20809;-59
2023/06/22 04:47:08;;;;;;;16.53;10.53;;;19.90;99.90;;;20.48;66.50;95447.38;4987404;28;20454;-54
2023/06/22 04:49:37;;;;;;;22.53;10.93;;;20.00;99.90;;;20.58;66.47;95453.25;4987545;28;20477;-56
2023/06/22 04:52:05;;;;;;;19.90;10.93;;;20.10;99.90;;;20.66;66.55;95449.66;4987365;28;20455;-58
2023/06/22 04:54:33;;;;;;;15.97;12.03;;;20.20;99.90;;;20.75;66.68;95440.50;4986909;28;20576;-60
2023/06/22 04:57:02;;;;;;;18.03;11.20;;;20.30;99.90;;;20.83;66.28;95446.78;4987241;28;20550;-59
2023/06/22 04:59:30;;;;;;;12.07;10.70;;;20.30;99.90;;;20.91;66.25;95446.63;4987112;28;20484;-56
2023/06/22 05:01:58;;;;;;;21.53;12.03;;;20.40;99.90;;;20.96;66.56;95438.91;4986623;28;20458;-60
2023/06/22 05:04:27;;;;;;;15.10;11.40;;;20.50;99.90;;;21.03;66.11;95445.13;4986882;28;21002;-58
2023/06/22 05:06:55;;;;;;;19.60;12.40;;;20.60;99.90;;;21.13;66.42;95442.13;4987591;28;20461;-57
2023/06/22 05:09:22;;;;;;;22.93;12.00;;;20.70;99.90;;;21.22;66.01;95443.63;4984487;28;20512;-55
2023/06/22 05:11:49;;;;;;;11.90;10.80;;;20.70;99.90;;;21.31;66.06;95439.81;4986335;28;20513;-56
2023/06/22 05:14:18;;;;;;;21.00;12.57;;;20.80;99.90;;;21.42;65.95;95438.47;4986497;28;20497;-61
2023/06/22 05:16:47;;;;;;;14.30;11.60;;;20.90;99.90;;;21.54;65.54;95441.47;4983589;28;20994;-59
2023/06/22 05:19:14;;;;;;;23.87;13.10;;;21.00;99.90;;;21.66;65.38;95442.59;4986867;28;20470;-56
2023/06/22 05:21:41;;;;;;;28.57;11.70;;;21.10;99.90;;;21.80;64.77;95446.22;4986929;28;20459;-55
2023/06/22 05:24:09;;;;;;;29.33;14.87;;;21.30;99.90;;;21.97;64.90;95444.03;4983378;28;20847;-54
2023/06/22 05:26:36;;;;;;;20.63;12.97;;;21.40;99.90;;;22.16;64.42;95452.41;4987012;28;20855;-55
2023/06/22 05:29:04;;;;;;;25.50;12.40;;;21.60;99.90;;;22.37;64.53;95456.88;4986896;28;20482;-60
2023/06/22 05:31:32;;;;;;;24.20;13.00;;;21.80;99.90;;;22.60;63.83;95455.72;4985760;28;20455;-55
2023/06/22 05:34:00;;;;;;;22.73;12.60;;;22.00;99.90;;;22.80;62.77;95459.28;4986664;28;20516;-59
2023/06/22 05:36:28;;;;;;;22.67;13.00;;;22.10;99.90;;;23.04;62.26;95457.91;4986528;28;20545;-56
2023/06/22 05:38:57;;;;;;;17.23;13.30;;;22.40;99.90;;;23.24;62.15;95457.16;4986616;28;20458;-59
2023/06/22 05:41:24;;;;;;;25.77;13.53;;;22.60;99.90;;;23.48;61.20;95465.66;4986548;28;20442;-57
2023/06/22 05:43:51;;;;;;;21.17;12.67;;;22.80;99.90;;;23.68;61.40;95468.34;4986235;28;20822;-57
2023/06/22 05:46:20;;;;;;;21.13;11.10;;;23.00;99.90;;;23.85;59.90;95474.16;4986251;28;20458;-55
2023/06/22 05:48:49;;;;;;;18.33;10.87;;;23.20;99.90;;;24.02;59.49;95474.53;4986014;28;20455;-55
2023/06/22 05:51:16;;;;;;;12.27;10.27;;;23.30;99.50;;;24.19;58.98;95481.13;4986365;28;20462;-56
2023/06/22 05:53:44;;;;;;;16.60;10.67;;;23.50;99.00;;;24.33;58.27;95482.72;4985525;28;20509;-55
2023/06/22 05:56:11;;;;;;;18.40;10.37;;;23.70;98.70;;;24.49;58.41;95470.72;4986413;28;20462;-60
2023/06/22 05:58:38;;;;;;;20.00;12.60;;;23.80;98.40;;;24.64;57.88;95472.34;4986062;28;20462;-56
2023/06/22 06:01:05;;;;;;;20.60;12.10;;;24.00;98.30;;;24.78;57.49;95468.53;4985851;28;20486;-56
2023/06/22 06:03:33;;;;;;;13.10;10.53;;;24.10;98.20;;;24.94;57.31;95467.25;4984458;28;20528;-59
2023/06/22 06:06:02;;;;;;;16.97;11.67;;;24.30;97.80;;;25.06;57.41;95472.75;4986206;28;20989;-57
2023/06/22 06:08:29;;;;;;;15.00;10.90;;;24.40;97.50;;;25.17;56.75;95463.16;4986105;28;20890;-59
2023/06/22 06:10:57;;;;;;;16.33;11.80;;;24.50;97.10;;;25.26;56.21;95463.72;4985795;28;20477;-56
2023/06/22 06:13:24;;;;;;;16.97;11.60;;;24.60;97.10;;;25.36;56.33;95459.56;4985758;28;20486;-56
2023/06/22 06:15:54;;;;;;;17.70;12.10;;;24.70;97.00;;;25.46;55.82;95463.63;4985688;28;20541;-60
2023/06/22 06:18:22;;;;;;;20.93;12.07;;;24.80;96.50;;;25.59;55.87;95468.91;4986134;28;20921;-59
2023/06/22 06:20:49;;;;;;;22.53;12.20;;;24.90;96.40;;;25.72;55.56;95457.22;4985793;28;20481;-54
2023/06/22 06:23:17;;;;;;;18.83;12.83;;;25.00;96.30;;;25.86;55.30;95457.91;4984289;28;20524;-56
2023/06/22 06:25:45;;;;;;;22.07;11.87;;;25.10;96.00;;;26.01;55.03;95461.13;4985692;28;20473;-59
2023/06/22 06:28:12;;;;;;;26.37;12.93;;;25.30;95.90;;;26.20;54.57;95463.84;4986202;28;20541;-58
2023/06/22 06:30:40;;;;;;;19.03;12.90;;;25.50;95.40;;;26.36;54.12;95455.16;4985945;28;20788;-54
2023/06/22 06:33:08;;;;;;;16.57;11.53;;;25.60;95.20;;;26.54;54.01;95458.88;4984852;28;20458;-57
2023/06/22 06:35:36;;;;;;;21.30;12.63;;;25.80;94.70;;;26.74;53.52;95459.53;4982732;28;20821;-55
2023/06/22 06:38:03;;;;;;;18.97;12.33;;;26.00;94.50;;;26.96;53.24;95449.03;4986079;28;20976;-57
2023/06/22 06:40:31;;;;;;;14.37;12.47;;;26.20;94.30;;;27.17;52.51;95446.88;4986025;28;20562;-55
2023/06/22 06:42:59;;;;;;;18.30;13.17;;;26.40;93.80;;;27.27;51.92;95446.34;4985313;28;20520;-60
2023/06/22 06:45:28;;;;;;;23.73;14.27;;;26.50;93.20;;;27.41;51.81;95445.13;4985835;28;20482;-55
2023/06/22 06:47:55;;;;;;;24.43;12.60;;;26.70;93.20;;;27.60;51.28;95445.03;4985808;28;20879;-55
2023/06/22 06:50:22;;;;;;;30.43;13.30;;;26.90;92.70;;;27.82;51.02;95442.56;4985237;28;20473;-59
2023/06/22 06:52:51;;;;;;;21.87;12.80;;;27.10;92.50;;;28.04;51.41;95440.97;4985871;28;20516;-55
2023/06/22 06:55:19;;;;;;;22.40;12.97;;;27.30;92.20;;;28.31;50.77;95443.19;4985466;28;21309;-59
2023/06/22 06:57:48;;;;;;;13.93;12.10;;;27.50;92.00;;;28.58;50.46;95435.41;4986377;28;20454;-59
2023/06/22 07:00:16;;;;;;;17.93;11.13;;;27.80;91.60;;;28.89;49.73;95441.44;4985759;28;21017;-55
2023/06/22 07:02:45;;;;;;;21.50;11.20;;;28.10;91.10;;;29.15;49.68;95434.56;4984789;28;20885;-54
2023/06/22 07:05:12;;;;;;;12.23;11.00;;;28.40;90.90;;;29.42;49.43;95427.75;4985729;28;20470;-55
2023/06/22 07:07:41;;;;;;;18.17;10.57;;;28.60;90.50;;;29.70;48.98;95435.03;4985948;28;20516;-56
2023/06/22 07:10:09;;;;;;;16.70;10.50;;;28.90;90.30;;;29.98;48.46;95427.88;4985830;28;20223;-59
2023/06/22 07:12:36;;;;;;;22.03;10.70;;;29.20;89.40;;;30.23;47.82;95441.00;4984643;28;20596;-55
2023/06/22 07:15:07;;;;;;;26.20;11.00;;;29.40;88.30;;;30.48;48.01;95443.25;4985369;28;20234;-56
2023/06/22 07:17:35;;;;;;;13.43;10.20;;;29.70;87.40;;;30.70;47.11;95445.97;4985377;28;20238;-56
2023/06/22 07:20:07;;;;;;;10.97;9.10;;;29.90;86.60;;;30.88;46.64;95433.16;4986010;28;20227;-59
2023/06/22 07:22:34;;;;;;;22.60;8.77;;;30.10;85.30;;;31.02;45.82;95437.13;4988418;28;20202;-55
2023/06/22 07:25:08;;;;;;;9.50;8.40;;;30.20;82.80;;;31.16;45.96;95436.75;4988924;28;20214;-59
2023/06/22 07:27:39;;;;;;;15.65;8.68;;;30.30;82.80;;;31.35;44.02;95439.91;4985738;28;20207;-57
2023/06/22 07:30:10;;;;;;;13.47;9.40;;;30.50;79.30;;;31.50;44.30;95437.34;4988821;28;20225;-56
2023/06/22 07:32:37;;;;;;;10.93;8.20;;;30.70;79.70;;;31.64;44.53;95443.19;4987765;28;20206;-56
2023/06/22 07:35:06;;;;;;;14.38;8.55;;;30.80;79.20;;;31.68;44.80;95449.75;4989581;28;20894;-61
2023/06/22 07:37:34;;;;;;;11.50;8.73;;;30.90;78.90;;;31.73;44.51;95444.38;4988167;28;20638;-55
2023/06/22 07:40:05;;;;;;;12.82;8.48;;;30.90;78.70;;;31.86;44.73;95443.09;4988419;28;20296;-59
2023/06/22 07:42:33;;;;;;;9.55;8.43;;;31.00;78.60;;;31.94;44.24;95445.31;4987781;28;20210;-60
2023/06/22 07:45:01;;;;;;;10.43;9.10;;;31.10;77.30;;;32.07;44.74;95443.22;4988636;28;20222;-55
2023/06/22 07:47:30;;;;;;;10.45;8.82;;;31.20;77.70;;;32.11;43.78;95447.09;4987441;28;20709;-60
2023/06/22 07:50:01;;;;;;;20.20;10.50;;;31.30;75.50;;;32.04;44.20;95449.19;4988528;28;20289;-55
2023/06/22 07:52:28;;;;;;;10.45;9.45;;;31.30;76.70;;;31.99;44.21;95447.25;4987922;28;20246;-56
2023/06/22 07:54:55;;;;;;;16.88;10.55;;;31.30;76.80;;;32.00;44.62;95447.00;4984829;28;20382;-60
2023/06/22 07:57:22;;;;;;;10.95;9.85;;;31.30;77.00;;;31.97;44.77;95438.53;4988385;28;20277;-60
2023/06/22 07:59:49;;;;;;;12.38;10.65;;;31.30;77.00;;;31.85;44.90;95435.19;4988490;28;20574;-58
2023/06/22 08:02:17;;;;;;;11.57;10.48;;;31.20;77.00;;;31.78;45.28;95424.53;4986551;28;20318;-57
2023/06/22 08:04:45;;;;;;;11.23;10.13;;;31.10;77.40;;;31.80;45.20;95425.91;4987308;28;20235;-55
2023/06/22 08:07:13;;;;;;;14.68;9.70;;;31.10;77.50;;;31.91;45.35;95417.81;4988031;28;20620;-55
2023/06/22 08:09:40;;;;;;;12.00;10.32;;;31.20;77.80;;;32.00;45.02;95422.50;4987665;28;20235;-56
2023/06/22 08:12:11;;;;;;;13.73;10.98;;;31.30;77.10;;;32.08;45.05;95421.19;4987187;28;20210;-56
2023/06/22 08:14:40;;;;;;;11.32;10.10;;;31.30;77.20;;;32.25;45.31;95417.53;4987619;28;20238;-59
2023/06/22 08:17:08;;;;;;;15.20;11.02;;;31.40;77.50;;;32.42;45.15;95425.50;4988378;28;20263;-57
2023/06/22 08:19:35;;;;;;;17.40;11.10;;;31.60;77.20;;;32.64;44.75;95423.47;4987758;28;20227;-59
2023/06/22 08:22:04;;;;;;;15.57;10.38;;;31.80;77.40;;;32.88;44.61;95418.38;4987709;28;20297;-55
2023/06/22 08:24:31;;;;;;;14.52;10.32;;;32.00;76.30;;;33.04;43.90;95418.41;4988336;28;20218;-59
2023/06/22 08:26:58;;;;;;;10.70;9.68;;;32.20;75.90;;;33.23;44.27;95421.47;4987768;28;20203;-57
2023/06/22 08:29:25;;;;;;;10.93;9.85;;;32.40;76.00;;;33.49;44.08;95424.25;4987765;28;20234;-59
2023/06/22 08:31:53;;;;;;;11.32;10.05;;;32.60;74.90;;;33.76;43.53;95410.38;4986697;28;20211;-57
2023/06/22 08:34:23;;;;;;;15.35;9.77;;;32.90;74.60;;;34.06;43.13;95416.88;4987776;28;20238;-56
2023/06/22 08:36:51;;;;;;;17.55;9.77;;;33.10;74.00;;;34.36;43.25;95416.00;4988515;28;20218;-57
2023/06/22 08:39:20;;;;;;;12.27;9.90;;;33.50;74.00;;;34.59;42.36;95411.84;4987519;28;20322;-56
2023/06/22 08:41:47;;;;;;;12.30;9.55;;;33.80;73.50;;;34.64;42.29;95411.84;4983971;28;20203;-56
2023/06/22 08:44:15;;;;;;;18.80;8.65;;;33.80;72.30;;;34.61;41.62;95417.88;4987431;28;20290;-60
2023/06/22 08:46:42;;;;;;;15.52;10.60;;;33.90;71.60;;;34.73;42.00;95414.78;4987414;28;20265;-57
2023/06/22 08:49:10;;;;;;;13.63;9.60;;;34.00;71.00;;;34.88;41.34;95413.94;4987491;28;20588;-59
2023/06/22 08:51:37;;;;;;;18.23;10.23;;;34.10;69.80;;;34.92;41.28;95401.34;4987755;28;21057;-56
2023/06/22 08:54:05;;;;;;;11.73;8.95;;;34.10;69.90;;;35.00;41.00;95399.94;4987425;28;20227;-60
2023/06/22 08:56:33;;;;;;;8.80;7.90;;;34.20;69.40;;;34.98;40.90;95394.75;4987320;28;20207;-60
2023/06/22 08:59:00;;;;;;;9.60;8.63;;;34.20;68.10;;;34.95;40.43;95395.31;4987071;28;20207;-62
2023/06/22 09:01:28;;;;;;;10.63;8.52;;;34.20;67.70;;;34.96;40.32;95393.41;4987175;28;20199;-55
2023/06/22 09:03:57;;;;;;;13.57;8.68;;;34.20;66.90;;;34.93;39.84;95393.97;4985951;28;20198;-60
2023/06/22 09:06:25;;;;;;;18.75;8.48;;;34.10;65.70;;;34.96;40.33;95393.41;4987175;28;20217;-56
2023/06/22 09:08:52;;;;;;;11.13;9.10;;;34.10;65.70;;;35.05;39.59;95393.63;4987316;28;20302;-56
2023/06/22 09:11:19;;;;;;;9.57;8.77;;;34.20;64.80;;;35.10;39.31;95394.41;4986599;28;20203;-57
2023/06/22 09:13:48;;;;;;;9.15;8.30;;;34.30;64.10;;;35.19;38.41;95383.69;4983595;28;20203;-56
2023/06/22 09:16:16;;;;;;;10.82;8.90;;;34.40;63.50;;;35.19;37.80;95389.16;4986696;28;20230;-60
2023/06/22 09:18:43;;;;;;;9.57;8.63;;;34.40;61.70;;;35.04;37.79;95386.53;4987150;28;20206;-55
2023/06/22 09:21:11;;;;;;;12.68;7.40;;;34.30;60.80;;;34.98;37.83;95393.91;4986980;28;20213;-56
2023/06/22 09:23:38;;;;;;;22.60;10.65;;;34.20;60.90;;;34.94;37.82;95388.22;4986966;28;20201;-59
2023/06/22 09:26:05;;;;;;;9.65;7.75;;;34.20;61.00;;;35.03;38.39;95391.19;4986711;28;20278;-55
2023/06/22 09:28:33;;;;;;;8.18;7.57;;;34.20;61.10;;;35.10;38.78;95401.78;4986616;28;20317;-56
2023/06/22 09:31:01;;;;;;;10.98;7.82;;;34.30;61.50;;;35.22;38.13;95402.25;4986591;28;20262;-56
2023/06/22 09:33:29;;;;;;;9.07;8.18;;;34.40;60.70;;;35.32;37.60;95398.66;4985055;28;20687;-57
2023/06/22 09:35:56;;;;;;;11.43;10.18;;;34.50;60.60;;;35.42;38.38;95403.28;4986831;28;20238;-60
2023/06/22 09:38:23;;;;;;;15.18;9.23;;;34.60;60.40;;;35.43;36.97;95399.41;4986729;28;20213;-57
2023/06/22 09:40:50;;;;;;;10.77;8.15;;;34.60;59.90;;;35.48;38.15;95402.94;4986505;28;20731;-61
2023/06/22 09:43:18;;;;;;;9.93;7.93;;;34.60;60.20;;;35.57;37.90;95392.16;4985827;28;20258;-57
2023/06/22 09:45:45;;;;;;;9.63;8.13;;;34.70;59.80;;;35.65;37.39;95394.31;4986614;28;20645;-60
2023/06/22 09:48:14;;;;;;;9.55;8.75;;;34.80;59.40;;;35.70;37.01;95383.31;4986656;28;20203;-56
2023/06/22 09:50:41;;;;;;;8.68;7.88;;;34.90;59.00;;;35.62;37.35;95385.84;4986962;28;20634;-55
2023/06/22 09:53:08;;;;;;;9.55;8.65;;;34.90;58.70;;;35.47;36.05;95384.88;4986997;28;20278;-56
2023/06/22 09:55:36;;;;;;;8.35;7.13;;;34.70;57.70;;;35.29;36.41;95378.19;4986442;28;20242;-60
2023/06/22 09:58:03;;;;;;;17.80;12.98;;;34.60;58.20;;;35.23;36.82;95379.28;4986727;28;20261;-55
2023/06/22 10:00:30;;;;;;;8.73;7.95;;;34.50;58.70;;;35.12;36.77;95373.06;4986210;28;20257;-55
2023/06/22 10:02:58;;;;;;;14.32;7.70;;;34.40;57.90;;;35.12;36.75;95377.72;4981781;28;20256;-55
2023/06/22 10:05:28;;;;;;;9.98;8.77;;;34.40;58.60;;;35.13;36.53;95379.34;4986106;28;20227;-58
2023/06/22 10:07:55;;;;;;;8.40;7.32;;;34.40;58.30;;;35.00;37.24;95370.69;4985965;28;20235;-56
2023/06/22 10:10:22;;;;;;;16.48;10.93;;;34.30;57.80;;;34.96;37.27;95366.88;4981991;28;20222;-56
2023/06/22 10:12:56;;;;;;;17.55;10.57;;;34.20;58.10;;;35.01;36.77;95372.31;4986016;28;20663;-60
2023/06/22 10:15:23;;;;;;;16.02;8.77;;;34.20;58.20;;;35.09;36.16;95362.72;4985417;28;20249;-56